Time;durP1;ratioP1;P1;durP2;ratioP2;P2;SDS_P1;SDS_P2;PMS_P1;PMS_P2;Temp;Humidity;BMP_temperature;BMP_pressure;BME280_temperature;BME280_humidity;BME280_pressure;Samples;Min_cycle;Max_cycle;Signal;HPM_P1;HPM_P2
2023/02/23 00:01:56;;;;;;;52.03;30.77;;;8.30;99.90;;;;;;4863412;29;20139;-88
2023/02/23 00:04:23;;;;;;;54.13;33.85;;;8.30;99.90;;;;;;4849981;29;20086;-87
2023/02/23 00:06:50;;;;;;;44.72;27.10;;;8.30;99.90;;;;;;4860908;29;20136;-88
2023/02/23 00:09:23;;;;;;;46.08;28.63;;;8.30;99.90;;;;;;4872552;29;20482;-87
2023/02/23 00:11:54;;;;;;;47.60;28.77;;;8.30;99.90;;;;;;4863629;29;20084;-87
2023/02/23 00:14:23;;;;;;;67.15;40.15;;;8.30;99.90;;;;;;4851518;29;20550;-87
2023/02/23 00:16:49;;;;;;;42.40;27.98;;;8.30;99.90;;;;;;4861747;29;20564;-87
2023/02/23 00:19:14;;;;;;;45.53;29.15;;;8.30;99.90;;;;;;4858724;29;20129;-87
2023/02/23 00:21:40;;;;;;;50.50;31.20;;;8.30;99.90;;;;;;4844691;29;20100;-87
2023/02/23 00:24:13;;;;;;;49.42;27.20;;;8.30;99.90;;;;;;4852224;29;20037;-87
2023/02/23 00:26:41;;;;;;;42.58;27.52;;;8.30;99.90;;;;;;4863302;29;20049;-87
2023/02/23 00:29:12;;;;;;;49.90;30.88;;;8.30;99.90;;;;;;4871015;29;20045;-88
2023/02/23 00:31:38;;;;;;;44.35;26.95;;;8.30;99.90;;;;;;4845209;29;20434;-87
2023/02/23 00:34:04;;;;;;;48.90;28.45;;;8.30;99.90;;;;;;4852330;29;20056;-88
2023/02/23 00:36:32;;;;;;;56.10;33.15;;;8.30;99.90;;;;;;4844673;29;20113;-87
2023/02/23 00:39:00;;;;;;;55.05;33.40;;;8.40;99.90;;;;;;4871867;29;20429;-87
2023/02/23 00:41:27;;;;;;;54.35;34.85;;;8.30;99.90;;;;;;4844286;29;20401;-87
2023/02/23 00:43:58;;;;;;;62.50;37.08;;;8.30;99.90;;;;;;4864850;29;20056;-88
2023/02/23 00:46:26;;;;;;;54.28;33.58;;;8.30;99.90;;;;;;4863040;29;20402;-88
2023/02/23 00:48:56;;;;;;;58.58;35.85;;;8.30;99.90;;;;;;4857909;29;20061;-87
2023/02/23 00:51:30;;;;;;;50.22;30.88;;;8.30;99.90;;;;;;4861004;29;20092;-87
2023/02/23 00:53:58;;;;;;;52.03;30.08;;;8.40;99.90;;;;;;4848373;29;20048;-88
2023/02/23 00:56:24;;;;;;;58.70;35.53;;;8.30;99.90;;;;;;4868063;29;20093;-87
2023/02/23 00:58:50;;;;;;;52.90;30.63;;;8.40;99.90;;;;;;4876031;29;20068;-87
2023/02/23 01:01:16;;;;;;;48.25;29.02;;;8.40;99.90;;;;;;4860983;29;20042;-87
2023/02/23 01:03:43;;;;;;;70.95;41.13;;;8.30;99.90;;;;;;4845220;29;20069;-87
2023/02/23 01:06:12;;;;;;;66.95;38.83;;;8.30;99.90;;;;;;4879044;29;20045;-87
2023/02/23 01:08:40;;;;;;;48.78;30.15;;;8.30;99.90;;;;;;4862365;29;20055;-86
2023/02/23 01:11:11;;;;;;;45.85;28.33;;;8.30;99.90;;;;;;4843397;29;20573;-87
2023/02/23 01:13:38;;;;;;;43.90;28.55;;;8.30;99.90;;;;;;4861155;29;20041;-88
2023/02/23 01:16:10;;;;;;;55.70;31.98;;;8.30;99.90;;;;;;4861011;29;20041;-87
2023/02/23 01:18:38;;;;;;;46.58;28.98;;;8.30;99.90;;;;;;4861227;29;20052;-87
2023/02/23 01:21:12;;;;;;;65.88;37.53;;;8.30;99.90;;;;;;4878090;29;20044;-87
2023/02/23 01:23:38;;;;;;;50.13;31.02;;;8.30;99.90;;;;;;4861611;29;20508;-87
2023/02/23 01:26:03;;;;;;;73.28;40.88;;;8.30;99.90;;;;;;4876889;29;20049;-87
2023/02/23 01:28:29;;;;;;;66.40;40.58;;;8.30;99.90;;;;;;4862171;29;20033;-87
2023/02/23 01:30:54;;;;;;;46.63;29.77;;;8.30;99.90;;;;;;4846230;29;20132;-87
2023/02/23 01:33:20;;;;;;;46.88;29.98;;;8.30;99.90;;;;;;4844233;29;20069;-87
2023/02/23 01:35:57;;;;;;;50.70;32.92;;;8.30;99.90;;;;;;4863895;29;20501;-88
2023/02/23 01:38:22;;;;;;;59.80;35.85;;;8.30;99.90;;;;;;4843102;29;20049;-88
2023/02/23 01:40:48;;;;;;;59.35;34.45;;;8.30;99.90;;;;;;4857150;29;20053;-88
2023/02/23 01:43:16;;;;;;;42.50;27.95;;;8.30;99.90;;;;;;4878165;29;20065;-88
2023/02/23 01:45:43;;;;;;;61.55;36.72;;;8.30;99.90;;;;;;4860981;29;20395;-87
2023/02/23 01:48:16;;;;;;;45.65;28.88;;;8.30;99.90;;;;;;4878891;29;20490;-88
2023/02/23 01:50:56;;;;;;;44.25;27.77;;;8.30;99.90;;;;;;4862004;29;20044;-87
2023/02/23 01:53:24;;;;;;;67.47;38.90;;;8.30;99.90;;;;;;4861138;29;20041;-87
2023/02/23 01:55:57;;;;;;;52.92;27.95;;;8.40;99.90;;;;;;4878166;29;20485;-87
2023/02/23 01:58:25;;;;;;;51.67;31.90;;;8.30;99.90;;;;;;4878280;29;20073;-87
2023/02/23 02:00:54;;;;;;;48.95;29.92;;;8.30;99.90;;;;;;4864990;29;20049;-87
2023/02/23 02:03:52;;;;;;;58.15;33.38;;;8.30;99.90;;;;;;4860012;29;20550;-87
2023/02/23 02:08:53;;;;;;;42.95;28.60;;;8.30;99.90;;;;;;4847849;29;20409;-87
2023/02/23 02:11:35;;;;;;;63.35;35.95;;;8.30;99.90;;;;;;4857933;29;20065;-88
2023/02/23 02:14:03;;;;;;;53.47;32.00;;;8.30;99.90;;;;;;4841378;29;20105;-87
2023/02/23 02:16:54;;;;;;;59.40;35.45;;;8.30;99.90;;;;;;4858513;29;20100;-88
2023/02/23 02:19:38;;;;;;;55.38;31.77;;;8.30;99.90;;;;;;4838786;29;20410;-88
2023/02/23 02:22:39;;;;;;;53.22;31.48;;;8.30;99.90;;;;;;4846387;29;20057;-88
2023/02/23 02:25:34;;;;;;;67.05;37.63;;;8.30;99.90;;;;;;4851003;29;20409;-87
2023/02/23 02:28:03;;;;;;;49.90;30.48;;;8.30;99.90;;;;;;4846468;29;20077;-89
2023/02/23 02:30:59;;;;;;;52.67;32.03;;;8.30;99.90;;;;;;4846407;29;20557;-87
2023/02/23 02:34:05;;;;;;;68.03;38.67;;;8.30;99.90;;;;;;4856672;29;20044;-87
2023/02/23 02:37:15;;;;;;;49.55;29.70;;;8.30;99.90;;;;;;4801543;29;20061;-88
2023/02/23 02:40:14;;;;;;;72.90;38.97;;;8.20;99.90;;;;;;4844234;29;20405;-87
2023/02/23 02:42:58;;;;;;;73.63;40.30;;;8.20;99.90;;;;;;4843556;29;20049;-87
2023/02/23 02:45:49;;;;;;;63.67;35.40;;;8.20;99.90;;;;;;4844826;29;20045;-87
2023/02/23 02:48:41;;;;;;;67.78;38.50;;;8.20;99.90;;;;;;4844545;29;20443;-88
2023/02/23 02:51:35;;;;;;;72.43;39.92;;;8.20;99.90;;;;;;4862815;29;20054;-88
2023/02/23 02:54:29;;;;;;;59.17;34.95;;;8.30;99.90;;;;;;4863245;29;20047;-88
2023/02/23 02:56:57;;;;;;;50.65;31.08;;;8.20;99.90;;;;;;4862161;29;20045;-88
2023/02/23 04:18:06;;;;;;;46.58;28.38;;;8.10;99.90;;;;;;4845101;29;20053;-88
2023/02/23 04:20:32;;;;;;;52.65;30.17;;;8.10;99.90;;;;;;4844694;29;20465;-89
2023/02/23 04:22:58;;;;;;;53.95;32.78;;;8.10;99.90;;;;;;4844187;29;20136;-88
2023/02/23 04:25:23;;;;;;;54.03;30.80;;;8.20;99.90;;;;;;4861413;29;20045;-89
2023/02/23 04:27:49;;;;;;;52.05;29.83;;;8.20;99.90;;;;;;4860440;29;20417;-89
2023/02/23 04:30:15;;;;;;;48.33;29.13;;;8.10;99.90;;;;;;4860780;29;20053;-89
2023/02/23 04:32:43;;;;;;;72.15;37.78;;;8.20;99.90;;;;;;4860187;29;20075;-89
2023/02/23 04:35:09;;;;;;;51.53;29.60;;;8.20;99.90;;;;;;4844113;29;20057;-88
2023/02/23 04:37:34;;;;;;;66.60;36.00;;;8.20;99.90;;;;;;4844085;29;20045;-88
2023/02/23 04:40:00;;;;;;;56.47;30.45;;;8.20;99.90;;;;;;4860822;29;20049;-89
2023/02/23 04:42:26;;;;;;;52.25;28.73;;;8.20;99.90;;;;;;4850302;29;20054;-88
2023/02/23 04:44:51;;;;;;;63.58;34.35;;;8.20;99.90;;;;;;4844551;29;20052;-88
2023/02/23 04:47:17;;;;;;;53.47;28.63;;;8.20;99.90;;;;;;4841550;29;20061;-89
2023/02/23 04:49:43;;;;;;;55.78;33.15;;;8.20;99.90;;;;;;4860931;29;20041;-89
2023/02/23 04:52:08;;;;;;;64.35;35.53;;;8.20;99.90;;;;;;4861707;29;20586;-89
2023/02/23 04:54:38;;;;;;;62.15;33.83;;;8.20;99.90;;;;;;4846158;29;20205;-88
2023/02/23 04:57:04;;;;;;;49.83;29.30;;;8.20;99.90;;;;;;4844199;29;20046;-89
2023/02/23 04:59:30;;;;;;;50.50;29.98;;;8.20;99.90;;;;;;4858178;29;20038;-90
2023/02/23 05:01:55;;;;;;;52.03;30.38;;;8.20;99.90;;;;;;4844873;29;20367;-90
2023/02/23 05:04:21;;;;;;;50.30;28.30;;;8.10;99.90;;;;;;4859553;29;20511;-90
2023/02/23 05:06:47;;;;;;;50.20;29.75;;;8.20;99.90;;;;;;4860990;29;20056;-89
2023/02/23 05:09:13;;;;;;;61.00;33.22;;;8.20;99.90;;;;;;4843628;29;20057;-89
2023/02/23 05:11:38;;;;;;;50.72;29.58;;;8.10;99.90;;;;;;4843846;29;20494;-89
2023/02/23 05:14:04;;;;;;;47.08;28.67;;;8.20;99.90;;;;;;4843959;29;20387;-89
2023/02/23 05:16:30;;;;;;;47.88;28.45;;;8.10;99.90;;;;;;4842961;29;20041;-90
2023/02/23 05:18:56;;;;;;;61.13;33.13;;;8.20;99.90;;;;;;4846674;29;20395;-89
2023/02/23 05:21:22;;;;;;;50.22;29.35;;;8.20;99.90;;;;;;4840696;29;20137;-90
2023/02/23 05:23:48;;;;;;;58.17;31.80;;;8.10;99.90;;;;;;4843491;29;20133;-89
2023/02/23 05:26:14;;;;;;;46.10;27.90;;;8.10;99.90;;;;;;4843492;29;20074;-88
2023/02/23 05:28:41;;;;;;;47.72;28.23;;;8.20;99.90;;;;;;4860040;29;20101;-88
2023/02/23 05:31:07;;;;;;;49.45;28.30;;;8.10;99.90;;;;;;4843025;29;20075;-89
2023/02/23 05:33:41;;;;;;;52.65;29.70;;;8.20;99.90;;;;;;4843699;29;20048;-88
2023/02/23 05:36:10;;;;;;;;;;;8.20;99.90;;;;;;4844141;29;20077;-88
2023/02/23 05:38:39;;;;;;;48.70;27.83;;;8.10;99.90;;;;;;4859370;29;20464;-89
2023/02/23 05:41:06;;;;;;;52.50;29.92;;;8.10;99.90;;;;;;4860058;29;20049;-88
2023/02/23 05:43:32;;;;;;;52.80;30.27;;;8.10;99.90;;;;;;4842897;29;20189;-89
2023/02/23 05:45:58;;;;;;;47.90;27.65;;;8.10;99.90;;;;;;4842163;29;20136;-89
2023/02/23 05:48:23;;;;;;;52.47;28.48;;;8.10;99.90;;;;;;4843537;29;20124;-88
2023/02/23 05:50:49;;;;;;;47.90;27.83;;;8.10;99.90;;;;;;4843342;29;20129;-86
2023/02/23 05:53:14;;;;;;;50.05;27.95;;;8.10;99.90;;;;;;4858391;29;20054;-87
2023/02/23 05:55:40;;;;;;;54.92;28.63;;;8.10;99.90;;;;;;4860173;29;20057;-86
2023/02/23 05:58:06;;;;;;;53.72;28.83;;;8.10;99.90;;;;;;4841557;29;20050;-86
2023/02/23 06:00:31;;;;;;;49.22;27.23;;;8.10;99.90;;;;;;4858100;29;20099;-87
2023/02/23 06:02:57;;;;;;;46.40;26.42;;;8.10;99.90;;;;;;4842131;29;20041;-87
2023/02/23 06:05:23;;;;;;;46.80;26.67;;;8.10;99.90;;;;;;4842376;29;20045;-87
2023/02/23 06:07:48;;;;;;;46.13;25.58;;;8.10;99.90;;;;;;4842017;29;20057;-87
2023/02/23 06:10:14;;;;;;;43.58;25.20;;;8.10;99.90;;;;;;4858196;29;20049;-89
2023/02/23 06:12:40;;;;;;;46.05;25.95;;;8.10;99.90;;;;;;4857752;29;20037;-88
2023/02/23 06:15:06;;;;;;;50.80;26.15;;;8.10;99.90;;;;;;4842163;29;20054;-88
2023/02/23 06:17:32;;;;;;;39.97;24.73;;;8.10;99.90;;;;;;4841837;29;20050;-88
2023/02/23 06:20:00;;;;;;;44.05;25.60;;;8.10;99.90;;;;;;4858428;29;20045;-88
2023/02/23 06:22:26;;;;;;;38.92;23.88;;;8.10;99.90;;;;;;4858487;29;20045;-88
2023/02/23 06:24:52;;;;;;;40.92;23.58;;;8.10;99.90;;;;;;4841701;29;20125;-88
2023/02/23 06:27:17;;;;;;;41.17;25.05;;;8.00;99.90;;;;;;4833325;29;20049;-89
2023/02/23 06:29:43;;;;;;;42.75;24.80;;;8.10;99.90;;;;;;4858074;29;20042;-86
2023/02/23 06:32:09;;;;;;;41.20;23.83;;;8.10;99.90;;;;;;4835331;29;20481;-89
2023/02/23 06:34:35;;;;;;;40.72;23.88;;;8.10;99.90;;;;;;4858678;29;20048;-88
2023/02/23 06:37:00;;;;;;;38.15;22.85;;;8.10;99.90;;;;;;4841872;29;20075;-86
2023/02/23 06:39:26;;;;;;;38.58;22.63;;;8.10;99.90;;;;;;4855312;29;20049;-86
2023/02/23 06:41:52;;;;;;;45.85;24.90;;;8.00;99.90;;;;;;4840368;29;20132;-86
2023/02/23 06:44:17;;;;;;;38.25;22.58;;;8.00;99.90;;;;;;4842394;29;20132;-86
2023/02/23 06:46:43;;;;;;;38.13;22.20;;;8.00;99.90;;;;;;4842059;29;20144;-88
2023/02/23 06:49:10;;;;;;;32.97;20.73;;;8.00;99.90;;;;;;4842132;29;20053;-89
2023/02/23 06:51:36;;;;;;;39.75;22.65;;;8.00;99.90;;;;;;4840944;29;20053;-89
2023/02/23 06:54:01;;;;;;;37.25;22.15;;;8.00;99.90;;;;;;4842121;29;20049;-88
2023/02/23 06:56:27;;;;;;;42.00;23.42;;;8.00;99.90;;;;;;4840493;29;20038;-87
2023/02/23 06:58:53;;;;;;;36.15;21.83;;;8.00;99.90;;;;;;4842784;29;20113;-88
2023/02/23 07:01:19;;;;;;;35.75;22.20;;;8.00;99.90;;;;;;4859456;29;20042;-88
2023/02/23 07:03:45;;;;;;;36.13;21.80;;;8.00;99.90;;;;;;4859718;29;20156;-88
2023/02/23 07:06:11;;;;;;;35.35;20.75;;;8.00;99.90;;;;;;4860700;29;20154;-88
2023/02/23 07:08:37;;;;;;;34.53;21.13;;;8.00;99.90;;;;;;4844784;29;20057;-88
2023/02/23 07:11:12;;;;;;;36.40;21.50;;;8.00;99.90;;;;;;4861607;29;20141;-88
2023/02/23 07:13:38;;;;;;;39.58;22.27;;;8.00;99.90;;;;;;4841020;29;20053;-89
2023/02/23 07:16:04;;;;;;;35.35;20.80;;;8.00;99.90;;;;;;4861577;29;20053;-88
2023/02/23 07:18:30;;;;;;;45.65;26.08;;;8.00;99.90;;;;;;4861008;29;20470;-88
2023/02/23 07:20:56;;;;;;;37.95;22.92;;;8.00;99.90;;;;;;4847617;29;20060;-89
2023/02/23 07:23:21;;;;;;;39.90;23.88;;;8.00;99.90;;;;;;4844829;29;20050;-88
2023/02/23 07:25:50;;;;;;;33.28;21.00;;;8.00;99.90;;;;;;4845528;29;20050;-88
2023/02/23 07:28:15;;;;;;;35.00;20.85;;;8.00;99.90;;;;;;4859828;29;20046;-88
2023/02/23 07:30:41;;;;;;;33.92;21.90;;;8.00;99.90;;;;;;4844054;29;21595;-88
2023/02/23 07:33:06;;;;;;;42.83;24.17;;;8.00;99.90;;;;;;4862309;29;20052;-89
2023/02/23 07:35:32;;;;;;;41.58;24.80;;;7.90;99.90;;;;;;4861713;29;20046;-88
2023/02/23 07:37:58;;;;;;;38.65;21.48;;;8.00;99.90;;;;;;4858134;29;20084;-88
2023/02/23 07:40:24;;;;;;;36.20;21.67;;;8.00;99.90;;;;;;4843857;29;20049;-89
2023/02/23 07:42:50;;;;;;;34.58;20.65;;;8.00;99.90;;;;;;4862395;29;20077;-89
2023/02/23 07:45:16;;;;;;;37.75;22.40;;;8.00;99.90;;;;;;4862036;29;20084;-90
2023/02/23 07:47:42;;;;;;;31.85;19.90;;;8.00;99.90;;;;;;4862003;29;20041;-89
2023/02/23 07:50:09;;;;;;;29.60;19.15;;;8.00;99.90;;;;;;4862695;29;20051;-91
2023/02/23 07:52:41;;;;;;;33.60;21.02;;;8.00;99.90;;;;;;4844234;29;20052;-89
2023/02/23 07:55:08;;;;;;;35.10;22.02;;;8.00;99.90;;;;;;4842520;29;20038;-89
2023/02/23 07:57:34;;;;;;;42.13;23.38;;;8.00;99.90;;;;;;4839453;29;20045;-90
2023/02/23 07:59:59;;;;;;;41.33;23.35;;;7.90;99.90;;;;;;4844911;29;20053;-90
2023/02/23 08:02:27;;;;;;;33.58;20.13;;;8.00;99.90;;;;;;4862309;29;20038;-90
2023/02/23 08:04:54;;;;;;;32.83;19.83;;;8.00;99.90;;;;;;4856780;29;20128;-91
2023/02/23 08:07:20;;;;;;;36.80;21.45;;;8.00;99.90;;;;;;4835346;29;20494;-90
2023/02/23 08:09:47;;;;;;;32.88;19.35;;;8.00;99.90;;;;;;4861729;29;20049;-92
2023/02/23 08:12:15;;;;;;;42.63;23.15;;;8.00;99.90;;;;;;4861975;29;20511;-92
2023/02/23 08:14:41;;;;;;;35.00;20.77;;;8.00;99.90;;;;;;4860922;29;20046;-88
2023/02/23 08:17:07;;;;;;;36.10;21.98;;;8.00;99.90;;;;;;4845790;29;20508;-88
2023/02/23 08:19:33;;;;;;;32.50;19.85;;;8.00;99.90;;;;;;4860552;29;20128;-88
2023/02/23 08:21:59;;;;;;;41.20;22.73;;;8.00;99.90;;;;;;4861729;29;20049;-88
2023/02/23 08:24:26;;;;;;;44.35;23.98;;;8.00;99.90;;;;;;4844027;29;20048;-90
2023/02/23 08:26:52;;;;;;;38.63;22.73;;;8.00;99.90;;;;;;4860543;29;20056;-91
2023/02/23 08:29:19;;;;;;;34.72;19.85;;;8.00;99.90;;;;;;4863320;29;20037;-89
2023/02/23 08:31:45;;;;;;;37.50;20.38;;;8.00;99.90;;;;;;4860534;29;20045;-88
2023/02/23 08:34:11;;;;;;;38.28;21.38;;;8.00;99.90;;;;;;4843816;29;20117;-88
2023/02/23 08:36:36;;;;;;;51.58;27.30;;;8.00;99.90;;;;;;4844799;29;20049;-88
2023/02/23 08:39:02;;;;;;;33.78;20.90;;;8.00;99.90;;;;;;4860076;29;20049;-88
2023/02/23 08:41:27;;;;;;;35.08;20.00;;;8.00;99.90;;;;;;4858577;29;20033;-88
2023/02/23 08:43:53;;;;;;;33.05;19.85;;;8.00;99.90;;;;;;4861015;29;20785;-88
2023/02/23 08:46:19;;;;;;;32.97;19.75;;;8.00;99.90;;;;;;4842985;29;20054;-88
2023/02/23 08:48:45;;;;;;;33.00;18.65;;;8.00;99.90;;;;;;4843330;29;20041;-88
2023/02/23 08:51:13;;;;;;;33.45;19.85;;;8.00;99.90;;;;;;4843909;29;20073;-89
2023/02/23 08:53:39;;;;;;;33.65;19.83;;;8.00;99.90;;;;;;4844145;29;20133;-90
2023/02/23 08:56:06;;;;;;;32.90;19.92;;;8.10;99.90;;;;;;4855398;29;20133;-91
2023/02/23 08:58:33;;;;;;;51.50;27.25;;;8.00;99.90;;;;;;4843407;29;20061;-89
2023/02/23 09:01:00;;;;;;;52.03;27.50;;;8.00;99.90;;;;;;4844543;29;20101;-91
2023/02/23 09:03:29;;;;;;;36.05;21.60;;;8.00;99.90;;;;;;4844236;29;20041;-89
2023/02/23 09:05:57;;;;;;;34.20;19.55;;;8.00;99.90;;;;;;4843749;29;20054;-91
2023/02/23 09:08:22;;;;;;;43.35;24.73;;;8.00;99.90;;;;;;4843932;29;20053;-92
2023/02/23 09:10:48;;;;;;;38.63;21.58;;;8.00;99.90;;;;;;4840534;29;20117;-90
2023/02/23 09:13:14;;;;;;;53.88;28.40;;;8.00;99.90;;;;;;4861069;29;20044;-91
2023/02/23 09:15:40;;;;;;;55.83;29.67;;;8.00;99.90;;;;;;4836221;29;20432;-90
2023/02/23 09:18:09;;;;;;;52.30;27.83;;;8.00;99.90;;;;;;4860190;29;20045;-91
2023/02/23 09:20:35;;;;;;;48.90;26.52;;;8.00;99.90;;;;;;4861277;29;20446;-93
2023/02/23 09:23:00;;;;;;;59.17;30.58;;;8.10;99.90;;;;;;4844910;29;20053;-92
2023/02/23 09:25:28;;;;;;;52.13;28.63;;;8.00;99.90;;;;;;4844512;29;20412;-90
2023/02/23 09:27:55;;;;;;;52.40;27.35;;;8.00;99.90;;;;;;4859650;29;20053;-90
2023/02/23 09:30:22;;;;;;;42.22;23.42;;;8.10;99.90;;;;;;4844023;29;20105;-91
2023/02/23 09:32:49;;;;;;;44.13;24.38;;;8.00;99.90;;;;;;4860749;29;20041;-91
2023/02/23 09:35:16;;;;;;;45.58;24.90;;;8.00;99.90;;;;;;4860973;29;20052;-93
2023/02/23 09:37:52;;;;;;;43.80;24.85;;;8.10;99.90;;;;;;4844183;29;20045;-93
2023/02/23 09:40:52;;;;;;;45.90;24.83;;;8.10;99.90;;;;;;4858963;29;20033;-96
2023/02/23 09:43:41;;;;;;;47.25;26.65;;;8.10;99.90;;;;;;4864640;29;20081;-94
2023/02/23 09:46:37;;;;;;;43.65;24.25;;;8.10;99.90;;;;;;4845655;29;20455;-94
2023/02/23 09:49:18;;;;;;;47.78;25.40;;;8.10;99.90;;;;;;4845313;29;20404;-93
2023/02/23 09:51:48;;;;;;;46.85;26.05;;;8.10;99.90;;;;;;4844500;29;20053;-93
2023/02/23 09:54:33;;;;;;;40.47;22.27;;;8.10;99.90;;;;;;4861554;29;20080;-94
2023/02/23 09:57:09;;;;;;;47.90;26.13;;;8.10;99.90;;;;;;4837558;29;20049;-93
2023/02/23 09:59:35;;;;;;;56.85;27.52;;;8.10;99.90;;;;;;4860834;29;20405;-95
2023/02/23 10:02:24;;;;;;;47.28;25.10;;;8.10;99.90;;;;;;4861535;29;20125;-92
2023/02/23 10:05:29;;;;;;;40.08;23.08;;;8.10;99.90;;;;;;4860500;29;20118;-92
2023/02/23 10:08:02;;;;;;;49.45;27.33;;;8.10;99.90;;;;;;4846363;29;20063;-94
2023/02/23 10:10:40;;;;;;;46.90;26.17;;;8.10;99.90;;;;;;4837225;29;20053;-94
2023/02/23 10:13:38;;;;;;;49.63;25.73;;;8.10;99.90;;;;;;4839217;29;20132;-95
2023/02/23 10:16:07;;;;;;;50.65;25.02;;;8.20;99.90;;;;;;4861511;29;20084;-95
2023/02/23 10:19:01;;;;;;;44.65;23.38;;;8.10;99.90;;;;;;4845857;29;20626;-94
2023/02/23 10:21:37;;;;;;;45.60;24.42;;;8.20;99.90;;;;;;4845581;29;20426;-94
2023/02/23 10:24:30;;;;;;;50.95;25.92;;;8.20;99.90;;;;;;4861640;29;20124;-94
2023/02/23 10:27:18;;;;;;;56.78;27.38;;;8.20;99.90;;;;;;4845523;29;20057;-95
2023/02/23 10:29:55;;;;;;;48.53;25.33;;;8.20;99.90;;;;;;4845421;29;20077;-96
2023/02/23 10:32:49;;;;;;;51.20;25.58;;;8.20;99.90;;;;;;4841399;29;20045;-93
2023/02/23 10:35:19;;;;;;;43.83;23.63;;;8.20;99.90;;;;;;4843605;29;20034;-94
2023/02/23 10:37:52;;;;;;;47.35;25.05;;;8.20;99.90;;;;;;4851797;29;20478;-91
2023/02/23 10:40:31;;;;;;;40.97;23.23;;;8.30;99.90;;;;;;4850310;29;20037;-96
2023/02/23 10:43:13;;;;;;;54.13;24.17;;;8.20;99.90;;;;;;4850666;29;20054;-94
2023/02/23 10:46:33;;;;;;;50.67;26.63;;;8.20;99.90;;;;;;4841901;29;20042;-96
2023/02/23 10:49:21;;;;;;;50.65;26.80;;;8.30;99.90;;;;;;4852023;29;20029;-96
2023/02/23 10:51:51;;;;;;;48.08;24.63;;;8.30;99.90;;;;;;4854361;29;20177;-96
2023/02/23 10:54:48;;;;;;;48.70;25.30;;;8.30;99.90;;;;;;4851736;29;20048;-95
2023/02/23 10:57:30;;;;;;;57.08;27.23;;;8.30;99.90;;;;;;4847485;29;20045;-94
2023/02/23 11:00:19;;;;;;;46.05;24.63;;;8.40;99.90;;;;;;4863696;29;20045;-94
2023/02/23 11:02:46;;;;;;;49.75;25.60;;;8.40;99.90;;;;;;4848807;29;20053;-95
2023/02/23 11:05:30;;;;;;;51.22;26.00;;;8.40;99.90;;;;;;4847899;29;20573;-93
2023/02/23 11:08:18;;;;;;;55.42;27.13;;;8.40;99.90;;;;;;4848059;29;20068;-95
2023/02/23 11:10:55;;;;;;;59.63;27.45;;;8.40;99.90;;;;;;4848972;29;20057;-96
2023/02/23 11:13:22;;;;;;;60.95;27.55;;;8.40;99.90;;;;;;4876030;29;20053;-96
2023/02/23 11:15:48;;;;;;;50.25;25.48;;;8.40;99.90;;;;;;4852698;29;20049;-96
2023/02/23 11:18:22;;;;;;;59.92;28.45;;;8.50;99.90;;;;;;4850999;29;20050;-96
2023/02/23 11:20:48;;;;;;;46.92;24.70;;;8.50;99.90;;;;;;4874795;29;20479;-94
2023/02/23 11:23:34;;;;;;;56.80;27.60;;;8.50;99.90;;;;;;4847995;29;20427;-95
2023/02/23 11:26:02;;;;;;;60.05;28.23;;;8.50;99.90;;;;;;4848871;29;20055;-95
2023/02/23 11:28:36;;;;;;;62.03;28.23;;;8.50;99.90;;;;;;4863475;29;20105;-93
2023/02/23 11:31:33;;;;;;;45.22;22.80;;;8.50;99.90;;;;;;4855001;29;20042;-91
2023/02/23 11:34:04;;;;;;;59.53;27.73;;;8.50;99.90;;;;;;4864677;29;20062;-93
2023/02/23 11:36:35;;;;;;;62.70;29.25;;;8.50;99.90;;;;;;4865493;29;20481;-96
2023/02/23 11:39:15;;;;;;;66.32;29.05;;;8.50;99.90;;;;;;4856462;29;20512;-94
2023/02/23 11:42:12;;;;;;;66.90;29.63;;;8.60;99.90;;;;;;4847238;29;20052;-94
2023/02/23 11:44:37;;;;;;;66.53;29.15;;;8.60;99.90;;;;;;4845334;29;20569;-92
2023/02/23 11:47:03;;;;;;;55.42;26.58;;;8.60;99.90;;;;;;4861588;29;20065;-95
2023/02/23 11:49:35;;;;;;;68.50;30.40;;;8.60;99.90;;;;;;4857296;29;20125;-94
2023/02/23 11:52:01;;;;;;;65.90;27.67;;;8.60;99.90;;;;;;4831132;29;20053;-95
2023/02/23 11:54:34;;;;;;;61.53;26.52;;;8.60;99.90;;;;;;4847897;29;20053;-93
2023/02/23 11:57:03;;;;;;;75.07;29.58;;;8.60;99.90;;;;;;4848955;29;20101;-94
2023/02/23 11:59:36;;;;;;;70.60;27.83;;;8.60;99.90;;;;;;4859520;29;20042;-93
2023/02/23 12:02:21;;;;;;;72.57;28.70;;;8.60;99.90;;;;;;4857062;29;20090;-94
2023/02/23 12:05:05;;;;;;;67.05;26.17;;;8.60;99.90;;;;;;4834863;29;20077;-95
2023/02/23 12:07:50;;;;;;;74.63;27.67;;;8.60;99.90;;;;;;4847949;29;20525;-94
2023/02/23 12:10:29;;;;;;;72.07;27.50;;;8.50;99.90;;;;;;4864986;29;20497;-95
2023/02/23 12:13:06;;;;;;;70.07;26.77;;;8.50;99.90;;;;;;4849419;29;20057;-96
2023/02/23 12:15:58;;;;;;;67.00;24.65;;;8.60;99.90;;;;;;4853493;29;20080;-96
2023/02/23 12:18:46;;;;;;;69.78;25.10;;;8.60;99.90;;;;;;4851246;29;20045;-95
2023/02/23 12:21:31;;;;;;;67.55;24.52;;;8.50;99.90;;;;;;4872488;29;20132;-96
2023/02/23 12:24:21;;;;;;;71.20;25.17;;;8.60;99.90;;;;;;4857939;29;20050;-96
2023/02/23 12:27:03;;;;;;;69.38;24.17;;;8.60;99.90;;;;;;4878070;29;20349;-96
2023/02/23 12:29:47;;;;;;;64.65;23.67;;;8.60;99.90;;;;;;4861542;29;20037;-95
2023/02/23 12:32:32;;;;;;;55.85;22.98;;;8.60;99.90;;;;;;4878134;29;20042;-96
2023/02/23 12:35:23;;;;;;;64.93;22.70;;;8.60;99.90;;;;;;4860995;29;20057;-96
2023/02/23 12:38:00;;;;;;;57.65;22.27;;;8.70;99.90;;;;;;4862393;29;20053;-96
2023/02/23 12:40:33;;;;;;;71.18;23.15;;;8.70;99.90;;;;;;4858280;29;20075;-96
2023/02/23 12:43:10;;;;;;;60.72;22.85;;;8.70;99.90;;;;;;4877426;29;20076;-95
2023/02/23 12:45:56;;;;;;;62.03;22.23;;;8.80;99.90;;;;;;4851406;29;20060;-95
2023/02/23 12:48:45;;;;;;;59.60;21.70;;;8.80;99.90;;;;;;4866305;29;20102;-96
2023/02/23 12:51:23;;;;;;;61.08;21.98;;;8.80;99.90;;;;;;4851839;29;20072;-96
2023/02/23 12:53:51;;;;;;;68.22;24.02;;;8.80;99.90;;;;;;4879311;29;20078;-96
2023/02/23 12:56:49;;;;;;;63.67;22.67;;;8.80;99.90;;;;;;4876932;29;20065;-96
2023/02/23 12:59:45;;;;;;;66.07;23.83;;;8.80;99.90;;;;;;4848314;29;20057;-92
2023/02/23 13:02:32;;;;;;;67.13;23.30;;;8.90;99.90;;;;;;4847679;29;20057;-94
2023/02/23 13:05:14;;;;;;;75.20;24.92;;;8.80;99.90;;;;;;4849318;29;20053;-95
2023/02/23 13:07:45;;;;;;;67.78;24.05;;;8.90;99.90;;;;;;4846196;29;20141;-94
2023/02/23 13:10:33;;;;;;;71.65;24.40;;;8.90;99.90;;;;;;4845465;29;20641;-91
2023/02/23 13:13:15;;;;;;;71.03;26.08;;;8.90;99.90;;;;;;4845562;29;20128;-93
2023/02/23 13:15:57;;;;;;;66.72;23.63;;;8.90;99.90;;;;;;4845636;29;20136;-93
2023/02/23 13:18:27;;;;;;;82.65;27.35;;;8.90;99.90;;;;;;4850855;29;20144;-96
2023/02/23 13:21:30;;;;;;;78.68;27.92;;;8.90;99.90;;;;;;4850746;29;20045;-94
2023/02/23 13:24:22;;;;;;;86.47;28.45;;;8.90;99.90;;;;;;4865535;29;20533;-95
2023/02/23 13:27:15;;;;;;;88.65;29.35;;;8.90;99.90;;;;;;4858066;29;20097;-95
2023/02/23 13:30:06;;;;;;;88.10;29.60;;;8.90;99.90;;;;;;4854490;29;20054;-95
2023/02/23 13:32:40;;;;;;;83.43;29.40;;;8.90;99.90;;;;;;4853821;29;20565;-96
2023/02/23 13:35:13;;;;;;;84.85;29.50;;;8.90;99.90;;;;;;4890507;24;20057;-96
2023/02/23 13:37:53;;;;;;;95.85;31.27;;;8.90;99.90;;;;;;4863707;29;20056;-95
2023/02/23 13:40:43;;;;;;;84.78;28.75;;;9.00;99.90;;;;;;4864447;29;20508;-95
2023/02/23 13:43:37;;;;;;;80.82;28.17;;;8.90;99.90;;;;;;4859671;29;20046;-96
2023/02/23 13:46:20;;;;;;;;;;;9.00;99.90;;;;;;4876344;29;20060;-88
2023/02/23 13:49:27;;;;;;;82.63;27.77;;;8.90;99.90;;;;;;4863083;24;20034;-94
2023/02/23 13:52:41;;;;;;;64.03;22.77;;;8.90;99.90;;;;;;4812121;29;20089;-92
2023/02/23 13:55:35;;;;;;;53.05;17.45;;;9.00;99.90;;;;;;4836972;24;20054;-92
2023/02/23 13:58:14;;;;;;;31.45;10.30;;;8.90;99.90;;;;;;4819026;29;20111;-93
2023/02/23 14:00:40;;;;;;;25.95;8.23;;;9.00;99.90;;;;;;4824544;29;20100;-92
2023/02/23 14:03:07;;;;;;;25.88;8.15;;;8.90;99.90;;;;;;4809703;29;20391;-93
2023/02/23 14:05:43;;;;;;;35.60;12.32;;;8.90;99.90;;;;;;4808062;29;20043;-96
2023/02/23 14:08:33;;;;;;;28.55;9.02;;;8.80;99.90;;;;;;4832345;29;20050;-92
2023/02/23 14:11:00;;;;;;;31.50;8.75;;;8.80;99.90;;;;;;4809235;29;20077;-92
2023/02/23 14:13:53;;;;;;;23.95;6.45;;;8.70;99.90;;;;;;4810120;29;20034;-92
2023/02/23 14:16:35;;;;;;;28.38;5.75;;;8.70;99.90;;;;;;4819922;29;20089;-91
2023/02/23 14:19:35;;;;;;;31.85;9.30;;;8.60;99.90;;;;;;4833560;29;20039;-92
2023/02/23 14:22:20;;;;;;;32.63;10.75;;;8.50;99.90;;;;;;4804787;29;20151;-89
2023/02/23 14:25:24;;;;;;;40.25;8.82;;;8.60;99.90;;;;;;4830215;29;20077;-90
2023/02/23 14:27:59;;;;;;;30.85;8.95;;;8.50;99.90;;;;;;4812205;29;20042;-90
2023/02/23 14:30:27;;;;;;;35.45;6.93;;;8.50;99.90;;;;;;4817881;29;20053;-92
2023/02/23 14:32:53;;;;;;;27.25;6.35;;;8.50;99.90;;;;;;4830592;29;20121;-90